Time;durP1;ratioP1;P1;durP2;ratioP2;P2;SDS_P1;SDS_P2;PMS_P1;PMS_P2;Temp;Humidity;BMP_temperature;BMP_pressure;BME280_temperature;BME280_humidity;BME280_pressure;Samples;Min_cycle;Max_cycle;Signal;HPM_P1;HPM_P2
2022/01/24 00:01:52;;;;;;;26.67;14.37;;;;;;;;;;5139874;27;20448;-76
2022/01/24 00:04:24;;;;;;;25.37;13.00;;;;;;;;;;5140096;27;20441;-77
2022/01/24 00:06:52;;;;;;;26.60;13.40;;;;;;;;;;5140020;27;20458;-76
2022/01/24 00:09:20;;;;;;;29.13;15.47;;;;;;;;;;5139965;27;20800;-76
2022/01/24 00:12:01;;;;;;;30.20;13.40;;;;;;;;;;5141084;27;20437;-76
2022/01/24 00:17:17;;;;;;;29.53;13.83;;;;;;;;;;5139627;27;20484;-76
2022/01/24 00:28:03;;;;;;;31.50;15.07;;;;;;;;;;5139792;27;20444;-77
2022/01/24 00:30:31;;;;;;;27.23;14.67;;;;;;;;;;5139578;27;20469;-76
2022/01/24 00:32:59;;;;;;;25.37;13.17;;;;;;;;;;5139392;27;20803;-77
2022/01/24 00:35:27;;;;;;;30.17;15.40;;;;;;;;;;5139165;27;20453;-76
2022/01/24 00:37:59;;;;;;;29.00;14.27;;;;;;;;;;5139354;27;20986;-76
2022/01/24 00:40:27;;;;;;;28.53;13.73;;;;;;;;;;5138876;27;20813;-76
2022/01/24 00:42:57;;;;;;;29.97;14.27;;;;;;;;;;5136558;27;20465;-76
2022/01/24 00:45:34;;;;;;;28.10;14.27;;;;;;;;;;5138541;27;20815;-76
2022/01/24 00:48:23;;;;;;;28.47;14.20;;;;;;;;;;5139015;27;20502;-76
2022/01/24 00:53:51;;;;;;;21.83;12.37;;;;;;;;;;5139123;27;20449;-76
2022/01/24 00:56:19;;;;;;;27.27;14.07;;;;;;;;;;5138470;27;20468;-77
2022/01/24 00:58:47;;;;;;;24.03;12.17;;;;;;;;;;5139120;27;20481;-77
2022/01/24 01:01:17;;;;;;;25.43;13.33;;;;;;;;;;5138803;27;20471;-76
2022/01/24 01:03:45;;;;;;;27.20;13.10;;;;;;;;;;5138489;27;20473;-76
2022/01/24 01:06:14;;;;;;;29.50;14.93;;;;;;;;;;5138804;27;20542;-76
2022/01/24 01:19:46;;;;;;;27.67;14.80;;;;;;;;;;5136804;27;20998;-76
2022/01/24 01:22:14;;;;;;;26.63;12.83;;;;;;;;;;5137734;27;20906;-77
2022/01/24 01:24:48;;;;;;;22.50;12.77;;;;;;;;;;5137911;27;20446;-77
2022/01/24 01:27:20;;;;;;;23.67;12.47;;;;;;;;;;5138326;27;20536;-76
2022/01/24 01:29:55;;;;;;;29.60;13.53;;;;;;;;;;5138730;28;20438;-76
2022/01/24 01:32:48;;;;;;;23.27;12.83;;;;;;;;;;5138627;28;20447;-76
2022/01/24 01:35:40;;;;;;;21.83;13.37;;;;;;;;;;5138714;28;20442;-76
2022/01/24 01:54:55;;;;;;;24.17;12.63;;;;;;;;;;5142503;27;20510;-75
2022/01/24 01:57:24;;;;;;;24.23;13.17;;;;;;;;;;5152388;27;20457;-75
2022/01/24 01:59:51;;;;;;;27.37;14.87;;;;;;;;;;5163171;27;20998;-76
2022/01/24 02:02:20;;;;;;;28.07;15.13;;;;;;;;;;5162849;27;20437;-76
2022/01/24 02:04:49;;;;;;;25.73;13.47;;;;;;;;;;5162880;27;20521;-76
2022/01/24 02:07:17;;;;;;;23.30;12.87;;;;;;;;;;5162862;27;20467;-75
2022/01/24 02:09:46;;;;;;;27.63;15.93;;;;;;;;;;5162892;27;20447;-76
2022/01/24 02:12:16;;;;;;;24.97;14.17;;;;;;;;;;5162848;27;20476;-76
2022/01/24 02:14:49;;;;;;;27.30;13.97;;;;;;;;;;5162959;27;20519;-76
2022/01/24 02:17:25;;;;;;;28.40;14.00;;;;;;;;;;5162827;27;20460;-76
2022/01/24 02:20:05;;;;;;;25.03;13.63;;;;;;;;;;5146813;27;20583;-76
2022/01/24 02:22:46;;;;;;;24.13;13.87;;;;;;;;;;5142145;27;20452;-75
2022/01/24 02:25:25;;;;;;;27.63;13.30;;;;;;;;;;5138189;27;20454;-75
2022/01/24 02:28:00;;;;;;;30.07;14.97;;;;;;;;;;5140143;27;20491;-76
2022/01/24 02:30:53;;;;;;;24.27;12.47;;;;;;;;;;5140289;27;20547;-76
2022/01/24 02:33:22;;;;;;;29.30;15.57;;;;;;;;;;5141573;27;20525;-76
2022/01/24 02:35:50;;;;;;;28.23;14.03;;;;;;;;;;5141486;27;20448;-76
2022/01/24 02:38:31;;;;;;;25.67;12.90;;;;;;;;;;5141736;27;20513;-77
2022/01/24 02:49:16;;;;;;;24.73;13.60;;;;;;;;;;5141239;27;20808;-76
2022/01/24 02:51:47;;;;;;;25.33;13.83;;;;;;;;;;5141206;27;20469;-76
2022/01/24 02:54:20;;;;;;;25.73;13.37;;;;;;;;;;5137876;27;20454;-76
2022/01/24 02:56:49;;;;;;;30.17;14.10;;;;;;;;;;5141520;27;20468;-76
2022/01/24 02:59:17;;;;;;;25.47;13.83;;;;;;;;;;5138992;27;20537;-76
2022/01/24 03:01:45;;;;;;;24.63;13.03;;;;;;;;;;5139312;27;20438;-76
2022/01/24 03:04:14;;;;;;;24.10;13.73;;;;;;;;;;5139327;27;20484;-76
2022/01/24 03:06:42;;;;;;;23.37;13.33;;;;;;;;;;5139165;27;20457;-76
2022/01/24 03:09:11;;;;;;;27.57;13.27;;;;;;;;;;5139495;27;20483;-76
2022/01/24 03:14:36;;;;;;;26.27;11.87;;;;;;;;;;5095515;28;20453;-75
2022/01/24 03:17:05;;;;;;;24.97;14.27;;;;;;;;;;5139486;27;20468;-76
2022/01/24 03:19:33;;;;;;;30.00;13.53;;;;;;;;;;5140844;27;20553;-76
2022/01/24 03:22:01;;;;;;;27.57;13.30;;;;;;;;;;5141029;27;20444;-76
2022/01/24 03:24:29;;;;;;;25.97;13.90;;;;;;;;;;5140517;27;20948;-75
2022/01/24 03:26:58;;;;;;;24.63;11.90;;;;;;;;;;5140947;27;20450;-76
2022/01/24 03:29:26;;;;;;;18.67;11.30;;;;;;;;;;5141627;27;20452;-75
2022/01/24 03:31:54;;;;;;;22.53;11.53;;;;;;;;;;5142358;27;20517;-76
2022/01/24 03:34:22;;;;;;;20.40;12.50;;;;;;;;;;5142120;27;20442;-76
2022/01/24 03:36:50;;;;;;;24.97;12.10;;;;;;;;;;5140329;27;20488;-76
2022/01/24 03:39:18;;;;;;;20.67;11.97;;;;;;;;;;5140436;27;20448;-76
2022/01/24 03:41:46;;;;;;;22.03;11.47;;;;;;;;;;5140572;27;20477;-76
2022/01/24 03:44:18;;;;;;;20.87;11.17;;;;;;;;;;5140262;27;20802;-76
2022/01/24 03:47:01;;;;;;;25.40;12.93;;;;;;;;;;5140269;27;20836;-76
2022/01/24 03:49:49;;;;;;;28.53;13.03;;;;;;;;;;5140462;27;20533;-76
2022/01/24 03:52:17;;;;;;;19.37;11.60;;;;;;;;;;5140041;27;20465;-76
2022/01/24 03:54:46;;;;;;;19.20;11.10;;;;;;;;;;5140160;27;20453;-76
2022/01/24 03:57:15;;;;;;;23.30;11.80;;;;;;;;;;5148604;27;20455;-76
2022/01/24 03:59:44;;;;;;;20.07;11.57;;;;;;;;;;5160656;27;20436;-75
2022/01/24 04:02:12;;;;;;;23.70;11.93;;;;;;;;;;5148752;27;20451;-76
2022/01/24 04:04:41;;;;;;;23.23;11.77;;;;;;;;;;5139456;27;20437;-75
2022/01/24 04:07:09;;;;;;;23.33;12.40;;;;;;;;;;5140679;27;20457;-75
2022/01/24 04:09:39;;;;;;;22.70;11.27;;;;;;;;;;5140578;27;20434;-75
2022/01/24 04:12:08;;;;;;;22.67;11.80;;;;;;;;;;5139390;27;20440;-75
2022/01/24 04:14:37;;;;;;;23.47;12.20;;;;;;;;;;5139274;27;20533;-75
2022/01/24 04:17:22;;;;;;;20.07;11.27;;;;;;;;;;5139575;27;20462;-76
2022/01/24 04:22:47;;;;;;;24.30;11.87;;;;;;;;;;5139445;27;20448;-75
2022/01/24 04:25:16;;;;;;;22.67;11.43;;;;;;;;;;5138953;27;20852;-75
2022/01/24 04:27:44;;;;;;;20.50;11.20;;;;;;;;;;5139619;27;20552;-75
2022/01/24 04:30:12;;;;;;;20.10;12.10;;;;;;;;;;5139517;27;20434;-75
2022/01/24 04:32:42;;;;;;;22.50;12.07;;;;;;;;;;5139311;27;20505;-77
2022/01/24 04:35:10;;;;;;;26.97;13.27;;;;;;;;;;5139480;27;20436;-75
2022/01/24 04:37:38;;;;;;;22.10;12.20;;;;;;;;;;5139090;27;20460;-75
2022/01/24 04:40:06;;;;;;;23.07;12.80;;;;;;;;;;5139245;27;20504;-76
2022/01/24 04:42:43;;;;;;;27.30;12.87;;;;;;;;;;5140989;27;20434;-75
2022/01/24 04:45:29;;;;;;;26.70;13.77;;;;;;;;;;5140682;27;20439;-75
2022/01/24 04:51:03;;;;;;;28.27;13.87;;;;;;;;;;5138752;27;20470;-76
2022/01/24 04:53:53;;;;;;;22.93;12.67;;;;;;;;;;5138104;27;20471;-76
2022/01/24 04:56:21;;;;;;;26.13;13.30;;;;;;;;;;5139042;27;20456;-76
2022/01/24 04:58:49;;;;;;;27.63;14.57;;;;;;;;;;5140672;27;20434;-75
2022/01/24 05:01:17;;;;;;;26.13;14.43;;;;;;;;;;5141217;27;20502;-75
2022/01/24 05:03:47;;;;;;;27.40;14.17;;;;;;;;;;5136099;27;20438;-75
2022/01/24 05:06:15;;;;;;;27.63;13.47;;;;;;;;;;5138727;27;20476;-76
2022/01/24 05:08:43;;;;;;;22.80;13.70;;;;;;;;;;5135070;27;20456;-76
2022/01/24 05:11:15;;;;;;;30.10;13.77;;;;;;;;;;5140908;27;20505;-76
2022/01/24 05:24:47;;;;;;;27.03;13.70;;;;;;;;;;5135614;27;20434;-77
2022/01/24 05:27:15;;;;;;;26.80;14.87;;;;;;;;;;5138400;28;20458;-77
2022/01/24 05:29:43;;;;;;;27.03;13.53;;;;;;;;;;5139243;27;20441;-76
2022/01/24 05:32:11;;;;;;;21.97;12.60;;;;;;;;;;5137968;28;20437;-76
2022/01/24 05:34:41;;;;;;;25.80;13.10;;;;;;;;;;5140659;27;20447;-76
2022/01/24 05:37:09;;;;;;;27.13;12.93;;;;;;;;;;5137877;28;20992;-77
2022/01/24 05:39:37;;;;;;;26.07;13.87;;;;;;;;;;5155603;27;20444;-77
2022/01/24 05:42:05;;;;;;;27.23;13.67;;;;;;;;;;5159236;27;20568;-77
2022/01/24 05:44:33;;;;;;;27.10;14.10;;;;;;;;;;5140681;27;20966;-67
2022/01/24 05:47:01;;;;;;;24.77;13.93;;;;;;;;;;5138107;28;20981;-67
2022/01/24 05:49:29;;;;;;;28.60;14.03;;;;;;;;;;5138203;28;21036;-77
2022/01/24 05:51:58;;;;;;;27.63;14.97;;;;;;;;;;5138181;28;20549;-77
2022/01/24 05:54:26;;;;;;;33.30;15.23;;;;;;;;;;5138256;28;20442;-77
2022/01/24 05:56:54;;;;;;;27.20;13.67;;;;;;;;;;5138704;27;20975;-77
2022/01/24 05:59:22;;;;;;;30.07;15.17;;;;;;;;;;5138689;27;20485;-76
2022/01/24 06:01:50;;;;;;;29.67;14.13;;;;;;;;;;5146275;27;20479;-76
2022/01/24 06:04:18;;;;;;;28.17;14.10;;;;;;;;;;5144639;27;20533;-77
2022/01/24 06:06:46;;;;;;;29.33;15.37;;;;;;;;;;5146898;27;20449;-76
2022/01/24 06:09:16;;;;;;;30.13;14.67;;;;;;;;;;5140325;27;20446;-76
2022/01/24 06:11:44;;;;;;;32.63;15.90;;;;;;;;;;5142529;27;20434;-77
2022/01/24 06:14:12;;;;;;;26.17;14.57;;;;;;;;;;5145467;27;20532;-77
2022/01/24 06:16:40;;;;;;;32.07;15.47;;;;;;;;;;5145694;27;20476;-76
2022/01/24 06:19:08;;;;;;;27.13;15.20;;;;;;;;;;5145999;27;20454;-76
2022/01/24 06:21:36;;;;;;;30.33;14.33;;;;;;;;;;5145497;27;20483;-75
2022/01/24 06:24:05;;;;;;;27.67;15.00;;;;;;;;;;5143376;27;20452;-77
2022/01/24 06:26:34;;;;;;;29.93;15.73;;;;;;;;;;5146164;27;20833;-77
2022/01/24 06:29:02;;;;;;;30.57;14.80;;;;;;;;;;5146015;27;20440;-78
2022/01/24 06:31:30;;;;;;;29.93;14.93;;;;;;;;;;5143816;27;20433;-78
2022/01/24 06:33:59;;;;;;;29.07;14.97;;;;;;;;;;5147631;27;20444;-75
2022/01/24 06:36:27;;;;;;;28.40;15.77;;;;;;;;;;5150414;27;20453;-77
2022/01/24 06:38:55;;;;;;;31.63;15.03;;;;;;;;;;5147695;27;20437;-76
2022/01/24 06:41:27;;;;;;;33.80;15.57;;;;;;;;;;5149530;27;20508;-75
2022/01/24 06:43:56;;;;;;;30.70;15.93;;;;;;;;;;5139768;27;20456;-75
2022/01/24 06:46:25;;;;;;;26.30;14.27;;;;;;;;;;5141329;27;20974;-76
2022/01/24 06:48:53;;;;;;;33.13;16.63;;;;;;;;;;5141006;27;20442;-75
2022/01/24 06:51:22;;;;;;;27.73;14.97;;;;;;;;;;5141435;27;20498;-75
2022/01/24 06:53:53;;;;;;;30.30;13.80;;;;;;;;;;5146280;27;21000;-76
2022/01/24 06:56:21;;;;;;;30.63;15.37;;;;;;;;;;5148601;27;20467;-75
2022/01/24 06:58:49;;;;;;;24.93;13.80;;;;;;;;;;5155220;27;20539;-77
2022/01/24 07:01:19;;;;;;;28.20;16.37;;;;;;;;;;5138343;27;20461;-76
2022/01/24 07:03:48;;;;;;;26.30;15.40;;;;;;;;;;5140786;27;20434;-76
2022/01/24 07:06:16;;;;;;;26.03;15.57;;;;;;;;;;5140667;27;20901;-75
2022/01/24 07:08:44;;;;;;;32.90;14.60;;;;;;;;;;5137854;27;20438;-75
2022/01/24 07:11:12;;;;;;;27.33;14.93;;;;;;;;;;5152238;27;20510;-75
2022/01/24 07:13:40;;;;;;;31.17;14.67;;;;;;;;;;5139992;27;20445;-75
2022/01/24 07:16:08;;;;;;;57.03;40.37;;;;;;;;;;5148592;27;20623;-74
2022/01/24 07:21:20;;;;;;;33.53;16.63;;;;;;;;;;5134333;27;20468;-75
2022/01/24 07:23:48;;;;;;;33.57;17.10;;;;;;;;;;5140566;27;20449;-70
2022/01/24 07:26:17;;;;;;;30.60;16.40;;;;;;;;;;5140232;27;21029;-69
2022/01/24 07:35:36;;;;;;;30.67;15.07;;;;;;;;;;5139724;27;20417;-61
2022/01/24 07:38:05;;;;;;;30.13;15.47;;;;;;;;;;5140128;27;20456;-70
2022/01/24 07:44:02;;;;;;;29.50;16.53;;;;;;;;;;5136100;27;20428;-66
2022/01/24 07:46:30;;;;;;;34.17;15.90;;;;;;;;;;5144664;27;20812;-67
2022/01/24 07:48:58;;;;;;;30.90;15.30;;;;;;;;;;5148246;27;20437;-66
2022/01/24 07:51:27;;;;;;;31.67;14.40;;;;;;;;;;5147667;27;20467;-67
2022/01/24 07:53:55;;;;;;;33.07;14.53;;;;;;;;;;5143864;27;20438;-66
2022/01/24 07:56:23;;;;;;;28.60;15.90;;;;;;;;;;5151216;27;20507;-66
2022/01/24 07:58:51;;;;;;;31.37;16.23;;;;;;;;;;5141760;27;20448;-66
2022/01/24 08:01:19;;;;;;;26.23;14.90;;;;;;;;;;5139608;27;20541;-66
2022/01/24 08:03:47;;;;;;;27.30;15.10;;;;;;;;;;5139437;27;20539;-66
2022/01/24 08:06:16;;;;;;;28.10;16.70;;;;;;;;;;5139589;27;20458;-66
2022/01/24 08:08:45;;;;;;;32.13;15.50;;;;;;;;;;5139605;27;20452;-66
2022/01/24 08:11:15;;;;;;;31.20;16.83;;;;;;;;;;5139516;27;20449;-66
2022/01/24 08:13:43;;;;;;;30.03;15.53;;;;;;;;;;5139164;27;20441;-66
2022/01/24 08:16:11;;;;;;;32.20;17.83;;;;;;;;;;5139320;27;20458;-67
2022/01/24 08:18:40;;;;;;;30.57;16.43;;;;;;;;;;5139177;27;20460;-66
2022/01/24 08:21:08;;;;;;;30.43;14.77;;;;;;;;;;5138811;27;20446;-67
2022/01/24 08:23:36;;;;;;;31.00;15.93;;;;;;;;;;5139329;27;20474;-66
2022/01/24 08:26:06;;;;;;;30.77;15.03;;;;;;;;;;5138886;27;20465;-66
2022/01/24 08:28:34;;;;;;;31.73;15.90;;;;;;;;;;5139043;27;20811;-67
2022/01/24 08:31:02;;;;;;;29.10;14.70;;;;;;;;;;5139217;27;20460;-67
2022/01/24 08:33:30;;;;;;;31.43;15.73;;;;;;;;;;5138771;27;20442;-67
2022/01/24 08:35:58;;;;;;;27.53;14.77;;;;;;;;;;5139147;27;20511;-67
2022/01/24 08:38:26;;;;;;;28.67;16.37;;;;;;;;;;5139174;27;20469;-67
2022/01/24 08:40:58;;;;;;;31.27;15.10;;;;;;;;;;5138128;27;20446;-66
2022/01/24 08:43:51;;;;;;;30.67;15.50;;;;;;;;;;5142532;27;20846;-67
2022/01/24 08:46:20;;;;;;;37.83;16.23;;;;;;;;;;5146618;27;20461;-67
2022/01/24 08:48:49;;;;;;;27.63;15.17;;;;;;;;;;5143993;27;20434;-67
2022/01/24 08:51:18;;;;;;;32.73;17.30;;;;;;;;;;5147025;27;20552;-67
2022/01/24 08:54:07;;;;;;;32.23;16.20;;;;;;;;;;5143820;27;20564;-67
2022/01/24 08:56:35;;;;;;;31.80;17.03;;;;;;;;;;5143140;27;20473;-67
2022/01/24 08:59:05;;;;;;;32.07;15.67;;;;;;;;;;5147215;27;20445;-67
2022/01/24 09:01:33;;;;;;;30.17;16.07;;;;;;;;;;5139828;27;20899;-68
2022/01/24 09:04:02;;;;;;;34.67;17.20;;;;;;;;;;5138209;27;21034;-67
2022/01/24 09:06:30;;;;;;;26.53;15.47;;;;;;;;;;5138392;27;20472;-67
2022/01/24 09:09:03;;;;;;;28.23;16.07;;;;;;;;;;5143888;27;20442;-68
2022/01/24 09:11:34;;;;;;;27.50;15.10;;;;;;;;;;5144370;27;20456;-67
2022/01/24 09:14:02;;;;;;;34.90;16.07;;;;;;;;;;5143933;27;20433;-67
2022/01/24 09:16:32;;;;;;;40.23;17.50;;;;;;;;;;5146155;27;20543;-67
2022/01/24 09:19:00;;;;;;;33.33;16.23;;;;;;;;;;5143159;27;20784;-67
2022/01/24 09:21:29;;;;;;;30.03;16.00;;;;;;;;;;5141956;27;20450;-67
2022/01/24 09:23:57;;;;;;;31.93;16.47;;;;;;;;;;5137781;27;20984;-67
2022/01/24 09:26:25;;;;;;;33.07;17.70;;;;;;;;;;5138160;27;20458;-67
2022/01/24 09:28:53;;;;;;;31.83;16.87;;;;;;;;;;5138397;27;20525;-67
2022/01/24 09:31:22;;;;;;;30.77;16.97;;;;;;;;;;5137857;28;20929;-67
2022/01/24 09:33:52;;;;;;;34.27;16.87;;;;;;;;;;5138181;28;20441;-67
2022/01/24 09:36:20;;;;;;;33.23;17.40;;;;;;;;;;5137944;28;20470;-67
2022/01/24 09:38:48;;;;;;;37.67;17.50;;;;;;;;;;5138088;28;20503;-67
2022/01/24 09:41:17;;;;;;;35.33;17.97;;;;;;;;;;5137927;28;20463;-66
2022/01/24 09:43:45;;;;;;;32.63;17.23;;;;;;;;;;5138242;28;20485;-67
2022/01/24 09:46:14;;;;;;;35.83;17.30;;;;;;;;;;5138023;28;20501;-67
2022/01/24 09:48:42;;;;;;;33.00;18.43;;;;;;;;;;5137612;28;20802;-66
2022/01/24 09:51:11;;;;;;;29.67;16.57;;;;;;;;;;5143181;27;20560;-67
2022/01/24 09:53:39;;;;;;;35.43;16.60;;;;;;;;;;5144570;27;20917;-67
2022/01/24 09:56:08;;;;;;;32.37;17.43;;;;;;;;;;5142389;27;20822;-67
2022/01/24 09:58:37;;;;;;;30.83;15.43;;;;;;;;;;5146404;27;20444;-67
2022/01/24 10:01:07;;;;;;;32.87;17.70;;;;;;;;;;5144895;27;20441;-67
2022/01/24 10:03:35;;;;;;;28.30;15.40;;;;;;;;;;5143989;27;20465;-67
2022/01/24 10:06:13;;;;;;;34.10;17.13;;;;;;;;;;5140837;27;20457;-67
2022/01/24 10:08:41;;;;;;;34.03;15.87;;;;;;;;;;5147822;27;20443;-68
2022/01/24 10:11:09;;;;;;;32.13;16.43;;;;;;;;;;5150829;27;20498;-67
2022/01/24 10:16:31;;;;;;;33.67;17.07;;;;;;;;;;5141679;27;20556;-67
2022/01/24 10:19:01;;;;;;;34.97;18.27;;;;;;;;;;5141576;27;20525;-68
2022/01/24 10:21:53;;;;;;;35.20;15.77;;;;;;;;;;5132868;27;20972;-67
2022/01/24 10:24:30;;;;;;;34.33;18.13;;;;;;;;;;5141151;27;20474;-67
2022/01/24 10:27:05;;;;;;;32.30;18.27;;;;;;;;;;5141488;27;20458;-68
2022/01/24 10:29:34;;;;;;;33.40;17.87;;;;;;;;;;5141079;27;20536;-68
2022/01/24 10:32:05;;;;;;;31.90;16.70;;;;;;;;;;5141469;27;20444;-68
2022/01/24 10:34:37;;;;;;;30.77;17.77;;;;;;;;;;5141229;27;20446;-67
2022/01/24 10:37:06;;;;;;;28.93;16.63;;;;;;;;;;5141064;27;20457;-74
2022/01/24 10:39:55;;;;;;;30.50;17.03;;;;;;;;;;5140874;27;20445;-68
2022/01/24 10:45:13;;;;;;;29.47;16.17;;;;;;;;;;5129876;27;21021;-68
2022/01/24 10:47:45;;;;;;;28.40;16.40;;;;;;;;;;5141002;27;20461;-68
2022/01/24 10:50:19;;;;;;;32.40;17.23;;;;;;;;;;5140939;27;20448;-68
2022/01/24 10:52:49;;;;;;;26.57;15.47;;;;;;;;;;5141290;27;20529;-68
2022/01/24 10:55:18;;;;;;;27.73;15.43;;;;;;;;;;5140486;27;20452;-68
2022/01/24 10:57:47;;;;;;;31.20;17.27;;;;;;;;;;5140602;27;20458;-68
2022/01/24 11:00:17;;;;;;;30.27;16.80;;;;;;;;;;5140860;27;20452;-67
2022/01/24 11:02:46;;;;;;;28.60;16.53;;;;;;;;;;5146239;27;20441;-67
2022/01/24 11:05:16;;;;;;;28.97;17.33;;;;;;;;;;5150943;27;20509;-67
2022/01/24 11:07:53;;;;;;;31.93;17.10;;;;;;;;;;5145968;27;20458;-67
2022/01/24 11:10:21;;;;;;;31.37;17.40;;;;;;;;;;5146021;27;20446;-68
2022/01/24 11:12:50;;;;;;;27.27;16.07;;;;;;;;;;5148521;27;20440;-67
2022/01/24 11:15:18;;;;;;;27.33;16.60;;;;;;;;;;5149067;27;20984;-67
2022/01/24 11:17:47;;;;;;;28.67;16.97;;;;;;;;;;5146635;27;20982;-67
2022/01/24 11:20:18;;;;;;;32.33;18.00;;;;;;;;;;5147014;27;21010;-67
2022/01/24 11:22:50;;;;;;;28.07;16.40;;;;;;;;;;5147363;27;20444;-67
2022/01/24 11:25:20;;;;;;;26.80;16.53;;;;;;;;;;5153631;27;20478;-67
2022/01/24 11:27:48;;;;;;;33.00;17.17;;;;;;;;;;5140425;27;20464;-67
2022/01/24 11:30:18;;;;;;;26.80;17.03;;;;;;;;;;5139963;27;20446;-66
2022/01/24 11:32:50;;;;;;;30.50;16.83;;;;;;;;;;5140592;27;20438;-66
2022/01/24 11:35:38;;;;;;;30.10;16.13;;;;;;;;;;5140292;27;20452;-67
2022/01/24 11:38:21;;;;;;;32.97;17.23;;;;;;;;;;5140305;27;20506;-66
2022/01/24 11:40:57;;;;;;;30.37;17.60;;;;;;;;;;5144748;27;20441;-68
2022/01/24 11:43:26;;;;;;;31.93;16.87;;;;;;;;;;5140073;27;20991;-67
2022/01/24 11:46:02;;;;;;;25.77;16.90;;;;;;;;;;5144060;27;20840;-67
2022/01/24 11:48:32;;;;;;;30.97;16.33;;;;;;;;;;5148222;27;20430;-67
2022/01/24 11:51:03;;;;;;;26.20;16.40;;;;;;;;;;5148071;27;20533;-67
2022/01/24 11:53:33;;;;;;;28.90;16.63;;;;;;;;;;5146202;27;20438;-67
2022/01/24 11:56:25;;;;;;;25.87;15.93;;;;;;;;;;5148007;27;20467;-67
2022/01/24 11:59:13;;;;;;;26.23;15.07;;;;;;;;;;5139947;27;20448;-67
2022/01/24 12:01:43;;;;;;;27.63;17.00;;;;;;;;;;5132530;27;20444;-66
2022/01/24 12:04:11;;;;;;;31.37;17.53;;;;;;;;;;5139278;27;20499;-66
2022/01/24 12:06:58;;;;;;;33.70;16.83;;;;;;;;;;5139802;27;20468;-68
2022/01/24 12:09:26;;;;;;;37.07;19.17;;;;;;;;;;5139068;27;20446;-70
2022/01/24 12:11:54;;;;;;;35.40;18.17;;;;;;;;;;5139279;27;20460;-70
2022/01/24 12:14:40;;;;;;;32.53;19.13;;;;;;;;;;5139566;27;20446;-69
2022/01/24 12:17:11;;;;;;;36.03;19.13;;;;;;;;;;5139733;27;20823;-70
2022/01/24 12:19:39;;;;;;;31.47;16.30;;;;;;;;;;5139589;27;20456;-69
2022/01/24 12:22:21;;;;;;;32.03;17.30;;;;;;;;;;5139382;27;20456;-69
2022/01/24 12:24:49;;;;;;;35.40;16.97;;;;;;;;;;5137862;27;20481;-69
2022/01/24 12:27:17;;;;;;;30.87;18.17;;;;;;;;;;5138912;27;20458;-68
2022/01/24 12:29:45;;;;;;;26.60;16.70;;;;;;;;;;5139775;27;20503;-68
2022/01/24 12:32:23;;;;;;;30.20;16.53;;;;;;;;;;5146966;27;20434;-68
2022/01/24 12:34:51;;;;;;;27.17;16.30;;;;;;;;;;5144966;27;20510;-67
2022/01/24 12:37:23;;;;;;;31.50;16.67;;;;;;;;;;5145247;27;20816;-68
2022/01/24 12:39:54;;;;;;;30.23;17.23;;;;;;;;;;5143483;27;20811;-68
2022/01/24 12:42:33;;;;;;;28.63;15.77;;;;;;;;;;5147162;27;20520;-68
2022/01/24 12:47:56;;;;;;;23.90;14.73;;;;;;;;;;5130262;27;20517;-68
2022/01/24 12:50:25;;;;;;;27.47;16.20;;;;;;;;;;5126675;27;20478;-67
2022/01/24 12:52:53;;;;;;;29.40;15.90;;;;;;;;;;5136042;27;20444;-68
2022/01/24 12:55:21;;;;;;;28.40;15.67;;;;;;;;;;5145053;27;20484;-68
2022/01/24 12:57:49;;;;;;;30.10;15.70;;;;;;;;;;5146731;27;20446;-67
2022/01/24 13:00:18;;;;;;;25.87;16.00;;;;;;;;;;5143238;27;20891;-69
2022/01/24 13:02:46;;;;;;;25.33;16.17;;;;;;;;;;5143054;27;20931;-68
2022/01/24 13:05:17;;;;;;;28.60;16.70;;;;;;;;;;5145340;27;20530;-69
2022/01/24 13:07:49;;;;;;;28.43;15.77;;;;;;;;;;5145948;27;21059;-69
2022/01/24 13:10:18;;;;;;;29.33;15.57;;;;;;;;;;5142081;27;20448;-68
2022/01/24 13:12:55;;;;;;;29.80;16.70;;;;;;;;;;5145858;27;20434;-69
2022/01/24 13:20:22;;;;;;;32.77;17.43;;;;;;;;;;5141332;27;20463;-69
2022/01/24 13:21:16;;;;;;;27.67;15.83;;;;;;;;;;5144175;27;20439;-69
2022/01/24 13:23:50;;;;;;;37.80;21.17;;;;;;;;;;5146635;27;20437;-69
2022/01/24 13:26:20;;;;;;;32.90;16.63;;;;;;;;;;5140537;27;20972;-68
2022/01/24 13:28:48;;;;;;;22.33;15.43;;;;;;;;;;5138110;27;20848;-69
2022/01/24 13:31:16;;;;;;;28.07;16.20;;;;;;;;;;5142892;27;20457;-69
2022/01/24 13:33:46;;;;;;;24.77;15.37;;;;;;;;;;5144838;27;20425;-68
2022/01/24 13:36:18;;;;;;;26.50;16.27;;;;;;;;;;5143554;27;20485;-69
2022/01/24 13:38:47;;;;;;;27.53;15.77;;;;;;;;;;5140402;27;20444;-69
2022/01/24 13:41:16;;;;;;;27.30;16.40;;;;;;;;;;5144005;27;20435;-69
2022/01/24 13:43:51;;;;;;;26.03;15.27;;;;;;;;;;5147724;27;20516;-69
2022/01/24 13:46:22;;;;;;;27.07;14.93;;;;;;;;;;5147885;27;20481;-69
2022/01/24 13:48:52;;;;;;;32.50;17.07;;;;;;;;;;5143164;27;20442;-69
2022/01/24 13:51:25;;;;;;;27.60;15.60;;;;;;;;;;5145118;27;20925;-69
2022/01/24 13:53:54;;;;;;;29.20;16.97;;;;;;;;;;5145626;27;20441;-68
2022/01/24 13:56:24;;;;;;;26.37;15.57;;;;;;;;;;5148849;27;20449;-71
2022/01/24 13:58:59;;;;;;;33.97;17.07;;;;;;;;;;5149398;27;20936;-68
2022/01/24 14:01:27;;;;;;;26.63;16.47;;;;;;;;;;5141980;27;20520;-67
2022/01/24 14:03:56;;;;;;;25.40;16.33;;;;;;;;;;5155011;27;20515;-68
2022/01/24 14:06:30;;;;;;;29.80;16.60;;;;;;;;;;5141920;27;20568;-69
2022/01/24 14:09:06;;;;;;;30.13;16.40;;;;;;;;;;5141387;27;20449;-68
2022/01/24 14:11:39;;;;;;;31.67;16.43;;;;;;;;;;5143399;27;20207;-68
2022/01/24 14:14:12;;;;;;;26.27;16.60;;;;;;;;;;5141690;27;20460;-69
2022/01/24 14:16:47;;;;;;;29.97;16.07;;;;;;;;;;5130069;27;20479;-70
2022/01/24 14:19:15;;;;;;;26.87;15.33;;;;;;;;;;5134611;27;20210;-70
2022/01/24 14:21:58;;;;;;;26.97;16.40;;;;;;;;;;5130930;27;20203;-69
2022/01/24 14:27:39;;;;;;;26.90;16.47;;;;;;;;;;5108844;27;20584;-72
2022/01/24 14:30:31;;;;;;;26.57;16.93;;;;;;;;;;5102903;28;20442;-72
2022/01/24 14:33:01;;;;;;;29.13;16.30;;;;;;;;;;5094579;28;20534;-72
2022/01/24 14:35:33;;;;;;;28.83;15.57;;;;;;;;;;5094799;28;20468;-73
2022/01/24 14:38:01;;;;;;;28.10;16.33;;;;;;;;;;5094583;28;20459;-73
2022/01/24 14:40:33;;;;;;;30.40;16.10;;;;;;;;;;5094064;28;20206;-73
2022/01/24 14:45:49;;;;;;;25.27;15.57;;;;;;;;;;5087753;28;21046;-73
2022/01/24 14:48:17;;;;;;;29.37;17.10;;;;;;;;;;5094311;28;20209;-71
2022/01/24 14:50:45;;;;;;;27.67;15.33;;;;;;;;;;5096654;28;20207;-72
2022/01/24 14:53:16;;;;;;;28.53;16.77;;;;;;;;;;5103168;28;20211;-73
2022/01/24 14:55:44;;;;;;;31.07;16.90;;;;;;;;;;5103111;28;20193;-73
2022/01/24 14:58:14;;;;;;;29.70;16.80;;;;;;;;;;5102698;28;20214;-73
2022/01/24 15:00:42;;;;;;;33.70;16.60;;;;;;;;;;5099960;28;20194;-73
2022/01/24 15:03:10;;;;;;;27.73;16.13;;;;;;;;;;5104289;28;20204;-73
2022/01/24 15:05:38;;;;;;;33.17;17.53;;;;;;;;;;5095527;28;20225;-72
2022/01/24 15:08:06;;;;;;;30.30;17.07;;;;;;;;;;5094282;28;20210;-72
2022/01/24 15:10:35;;;;;;;27.67;18.00;;;;;;;;;;5091700;28;20197;-73
2022/01/24 15:13:06;;;;;;;27.10;16.30;;;;;;;;;;5084557;28;20692;-72
2022/01/24 15:15:40;;;;;;;30.30;16.97;;;;;;;;;;5091983;28;20344;-72
2022/01/24 15:26:24;;;;;;;24.53;15.77;;;;;;;;;;5076595;28;20233;-70
2022/01/24 15:28:52;;;;;;;28.97;16.80;;;;;;;;;;5082147;28;20741;-70
2022/01/24 15:31:22;;;;;;;28.47;17.60;;;;;;;;;;5084940;28;20219;-70
2022/01/24 15:33:51;;;;;;;24.87;15.73;;;;;;;;;;5074106;28;20225;-70
2022/01/24 15:36:19;;;;;;;25.97;16.57;;;;;;;;;;5076357;28;21251;-71
2022/01/24 15:38:47;;;;;;;30.13;15.57;;;;;;;;;;5070858;28;20198;-70
2022/01/24 15:41:15;;;;;;;27.97;16.73;;;;;;;;;;5079603;28;20202;-69
2022/01/24 15:43:58;;;;;;;26.70;16.53;;;;;;;;;;5079935;28;20202;-70
2022/01/24 15:49:16;;;;;;;24.73;15.00;;;;;;;;;;5077701;28;20539;-70
2022/01/24 15:51:44;;;;;;;23.83;15.63;;;;;;;;;;5090366;28;20194;-70
2022/01/24 15:54:17;;;;;;;26.60;15.03;;;;;;;;;;5087773;28;20205;-70
2022/01/24 15:59:30;;;;;;;26.33;15.47;;;;;;;;;;5087059;28;20285;-70
2022/01/24 16:01:59;;;;;;;30.67;15.43;;;;;;;;;;5085701;28;20210;-70
2022/01/24 16:04:28;;;;;;;31.33;16.60;;;;;;;;;;5082546;28;20209;-70
2022/01/24 16:06:56;;;;;;;25.57;15.73;;;;;;;;;;5089024;28;20232;-71
2022/01/24 16:09:24;;;;;;;29.53;16.50;;;;;;;;;;5081972;28;20241;-71
2022/01/24 16:11:52;;;;;;;26.60;16.40;;;;;;;;;;5079305;28;20289;-71
2022/01/24 16:14:25;;;;;;;28.53;16.10;;;;;;;;;;5079240;28;20206;-72
2022/01/24 16:16:53;;;;;;;25.93;16.33;;;;;;;;;;5069390;28;20288;-71
2022/01/24 16:19:24;;;;;;;27.37;15.90;;;;;;;;;;5072228;28;20208;-71
2022/01/24 16:22:02;;;;;;;27.80;16.00;;;;;;;;;;5079469;28;20221;-71
2022/01/24 16:27:35;;;;;;;31.80;16.30;;;;;;;;;;5079275;28;20321;-71
2022/01/24 16:30:04;;;;;;;26.60;16.27;;;;;;;;;;5078742;28;20666;-71
2022/01/24 16:32:35;;;;;;;32.60;17.60;;;;;;;;;;5079241;28;20221;-71
2022/01/24 16:35:04;;;;;;;27.07;17.77;;;;;;;;;;5079029;28;20289;-72